createdAt,value
2019-05-30T00:00:31.597Z,98985.16
2019-05-30T00:03:01.957Z,98981.72
2019-05-30T00:05:32.083Z,98982.36
2019-05-30T00:08:02.429Z,98985.71
2019-05-30T00:10:31.812Z,98985.54
2019-05-30T00:13:01.117Z,98983.44
2019-05-30T00:15:30.412Z,98984.63
2019-05-30T00:18:00.876Z,98980.74
2019-05-30T00:20:30.221Z,98983.78
2019-05-30T00:23:00.925Z,98979.83
2019-05-30T00:25:30.345Z,98985.63
2019-05-30T00:27:59.636Z,98989.05
2019-05-30T00:30:28.917Z,98988.54
2019-05-30T00:32:58.939Z,98994.36
2019-05-30T00:35:28.282Z,98990.77
2019-05-30T00:37:57.742Z,98994.85
2019-05-30T00:40:27.087Z,99005.98
2019-05-30T00:42:57.925Z,99006.98
2019-05-30T00:45:27.144Z,99002.50
2019-05-30T00:47:56.430Z,99005.54
2019-05-30T00:50:25.718Z,99000.22
2019-05-30T00:52:56.332Z,99003.56
2019-05-30T00:55:25.842Z,99003.56
2019-05-30T00:57:56.592Z,98999.23
2019-05-30T01:00:42.076Z,99001.33
2019-05-30T01:02:59.871Z,98998.74
2019-05-30T01:05:29.677Z,99006.04
2019-05-30T01:07:59.100Z,99007.65
2019-05-30T01:10:28.342Z,99002.08
2019-05-30T01:12:59.764Z,98997.75
2019-05-30T01:15:28.686Z,98999.61
2019-05-30T01:17:59.028Z,99002.02
2019-05-30T01:20:28.427Z,98999.42
2019-05-30T01:22:57.690Z,99007.09
2019-05-30T01:25:26.995Z,99002.30
2019-05-30T01:27:57.316Z,99010.52
2019-05-30T01:30:26.798Z,99006.06
2019-05-30T01:32:57.545Z,99007.12
2019-05-30T01:35:26.923Z,99006.98
2019-05-30T01:37:57.588Z,99006.92
2019-05-30T01:40:26.900Z,99006.98
2019-05-30T01:42:56.340Z,99011.38
2019-05-30T01:45:25.592Z,98999.48
2019-05-30T01:47:54.880Z,99002.45
2019-05-30T01:50:24.277Z,99005.17
2019-05-30T01:52:53.645Z,99010.88
2019-05-30T01:55:22.910Z,99011.73
2019-05-30T01:57:52.173Z,99011.26
2019-05-30T02:00:23.007Z,99008.05
2019-05-30T02:02:52.282Z,98999.27
2019-05-30T02:05:21.742Z,99006.62
2019-05-30T02:07:51.035Z,99006.69
2019-05-30T02:10:20.380Z,99005.33
2019-05-30T02:12:49.684Z,99009.77
2019-05-30T02:15:19.329Z,99012.88
2019-05-30T02:17:48.636Z,99007.07
2019-05-30T02:20:17.889Z,99010.25
2019-05-30T02:22:47.145Z,99009.53
2019-05-30T02:25:16.813Z,99013.23
2019-05-30T02:27:46.094Z,99014.34
2019-05-30T02:30:15.905Z,99013.72
2019-05-30T02:32:45.152Z,99014.98
2019-05-30T02:35:15.760Z,99022.62
2019-05-30T02:37:45.027Z,99023.02
2019-05-30T02:40:15.542Z,99027.95
2019-05-30T02:42:44.849Z,99028.83
2019-05-30T02:45:14.354Z,99036.18
2019-05-30T02:47:43.633Z,99035.36
2019-05-30T02:50:14.155Z,99031.75
2019-05-30T02:52:43.666Z,99035.93
2019-05-30T02:55:13.823Z,99042.12
2019-05-30T02:57:43.219Z,99037.77
2019-05-30T03:00:17.369Z,99041.50
2019-05-30T03:02:43.739Z,99039.73
2019-05-30T03:05:15.085Z,99039.92
2019-05-30T03:07:44.092Z,99041.05
2019-05-30T03:10:15.228Z,99042.81
2019-05-30T03:12:44.940Z,99043.31
2019-05-30T03:15:15.819Z,99042.80
2019-05-30T03:17:45.233Z,99037.08
2019-05-30T03:20:22.945Z,99049.84
2019-05-30T03:22:46.310Z,99047.09
2019-05-30T03:25:16.387Z,99038.94
2019-05-30T03:27:45.834Z,99039.55
2019-05-30T03:30:25.539Z,99044.31
2019-05-30T03:33:11.920Z,99043.41
2019-05-30T03:35:27.365Z,99050.20
2019-05-30T03:37:48.760Z,99049.91
2019-05-30T03:40:20.308Z,99049.66
2019-05-30T03:42:49.441Z,99056.53
2019-05-30T03:45:18.719Z,99053.98
2019-05-30T03:47:51.743Z,99048.12
2019-05-30T03:50:23.532Z,99046.61
2019-05-30T03:52:53.714Z,99047.72
2019-05-30T03:55:24.492Z,99050.91
2019-05-30T03:58:00.458Z,99056.72
2019-05-30T04:00:45.235Z,99052.27
2019-05-30T04:03:31.426Z,99055.87
2019-05-30T04:06:04.611Z,99057.50
2019-05-30T04:08:36.646Z,99066.84
2019-05-30T04:11:10.458Z,99065.66
2019-05-30T04:13:50.166Z,99067.36
2019-05-30T04:16:19.861Z,99070.78
2019-05-30T04:18:49.229Z,99068.59
2019-05-30T04:21:21.293Z,99082.59
2019-05-30T04:23:49.541Z,99081.25
2019-05-30T04:26:18.810Z,99075.64
2019-05-30T04:28:48.086Z,99073.18
2019-05-30T04:31:19.174Z,99075.72
2019-05-30T04:33:48.361Z,99079.56
2019-05-30T04:36:19.166Z,99080.92
2019-05-30T04:38:48.718Z,99078.66
2019-05-30T04:41:20.375Z,99081.59
2019-05-30T04:43:49.006Z,99088.13
2019-05-30T04:46:19.624Z,99090.27
2019-05-30T04:48:49.341Z,99084.44
2019-05-30T04:51:21.030Z,99088.13
2019-05-30T04:53:49.693Z,99092.05
2019-05-30T04:56:19.824Z,99094.47
2019-05-30T04:58:49.983Z,99087.47
2019-05-30T05:01:20.138Z,99087.86
2019-05-30T05:03:50.230Z,99088.41
2019-05-30T05:06:19.886Z,99095.09
2019-05-30T05:08:49.251Z,99099.03
2019-05-30T05:11:22.552Z,99105.72
2019-05-30T05:13:49.694Z,99103.51
2019-05-30T05:16:33.229Z,99100.66
2019-05-30T05:18:49.959Z,99104.30
2019-05-30T05:21:19.226Z,99097.47
2019-05-30T05:23:48.905Z,99101.15
2019-05-30T05:26:18.156Z,99102.72
2019-05-30T05:28:47.442Z,99101.59
2019-05-30T05:31:16.709Z,99101.48
2019-05-30T05:33:56.318Z,99104.13
2019-05-30T05:36:17.022Z,99103.47
2019-05-30T05:38:46.279Z,99097.48
2019-05-30T05:41:16.086Z,99102.38
2019-05-30T05:43:45.432Z,99099.72
2019-05-30T05:46:14.705Z,99101.92
2019-05-30T05:48:44.049Z,99103.29
2019-05-30T05:51:13.336Z,99109.58
2019-05-30T05:53:42.597Z,99103.78
2019-05-30T05:56:11.873Z,99100.36
2019-05-30T05:58:41.151Z,99108.73
2019-05-30T06:01:10.465Z,99101.28
2019-05-30T06:03:39.786Z,99101.11
2019-05-30T06:06:09.047Z,99100.66
2019-05-30T06:08:38.334Z,99113.38
2019-05-30T06:11:08.696Z,99112.66
2019-05-30T06:13:37.979Z,99116.00
2019-05-30T06:16:07.226Z,99120.62
2019-05-30T06:18:36.515Z,99122.42
2019-05-30T06:21:05.807Z,99125.69
2019-05-30T06:23:35.111Z,99127.30
2019-05-30T06:26:04.513Z,99126.41
2019-05-30T06:28:33.765Z,99124.67
2019-05-30T06:31:03.057Z,99127.31
2019-05-30T06:33:32.318Z,99128.67
2019-05-30T06:36:01.803Z,99125.39
2019-05-30T06:38:31.246Z,99137.23
2019-05-30T06:41:00.579Z,99132.63
2019-05-30T06:43:30.331Z,99132.20
2019-05-30T06:45:59.687Z,99132.06
2019-05-30T06:48:28.967Z,99129.23
2019-05-30T06:50:58.315Z,99128.71
2019-05-30T06:53:27.605Z,99125.55
2019-05-30T06:55:56.885Z,99128.23
2019-05-30T06:58:45.070Z,99122.86
2019-05-30T07:00:57.180Z,99122.74
2019-05-30T07:03:28.499Z,99122.95
2019-05-30T07:05:58.511Z,99120.46
2019-05-30T07:08:28.875Z,99119.51
2019-05-30T07:10:58.296Z,99122.80
2019-05-30T07:13:27.575Z,99121.38
2019-05-30T07:15:56.871Z,99118.00
2019-05-30T07:18:27.418Z,99123.31
2019-05-30T07:20:57.136Z,99120.61
2019-05-30T07:23:27.782Z,99123.38
2019-05-30T07:25:57.199Z,99118.19
2019-05-30T07:28:26.514Z,99115.06
2019-05-30T07:30:55.787Z,99119.23
2019-05-30T07:33:25.992Z,99122.14
2019-05-30T07:35:55.314Z,99119.50
2019-05-30T07:38:24.658Z,99119.66
2019-05-30T07:40:53.916Z,99125.98
2019-05-30T07:43:25.379Z,99122.06
2019-05-30T07:45:58.309Z,99121.73
2019-05-30T07:48:26.007Z,99122.38
2019-05-30T07:50:55.436Z,99118.12
2019-05-30T07:53:24.713Z,99117.81
2019-05-30T07:55:53.969Z,99121.98
2019-05-30T07:58:23.269Z,99118.10
2019-05-30T08:00:52.537Z,99121.41
2019-05-30T08:03:21.811Z,99124.62
2019-05-30T08:05:51.110Z,99126.66
2019-05-30T08:08:20.371Z,99118.03
2019-05-30T08:10:49.701Z,99121.67
2019-05-30T08:13:18.986Z,99126.98
2019-05-30T08:15:48.263Z,99122.48
2019-05-30T08:18:17.607Z,99122.81
2019-05-30T08:20:46.890Z,99117.50
2019-05-30T08:23:16.231Z,99119.45
2019-05-30T08:25:45.585Z,99113.36
2019-05-30T08:28:14.885Z,99115.55
2019-05-30T08:30:46.007Z,99114.58
2019-05-30T08:33:15.286Z,99107.80
2019-05-30T08:35:49.902Z,99112.45
2019-05-30T08:38:16.702Z,99110.73
2019-05-30T08:40:46.059Z,99108.47
2019-05-30T08:43:15.344Z,99109.45
2019-05-30T08:45:44.641Z,99101.69
2019-05-30T08:48:13.941Z,99099.93
2019-05-30T08:50:44.789Z,99101.36
2019-05-30T08:53:14.267Z,99103.14
2019-05-30T08:55:43.945Z,99102.86
2019-05-30T08:58:13.206Z,99105.34
2019-05-30T09:00:42.474Z,99102.08
2019-05-30T09:03:11.746Z,99102.31
2019-05-30T09:05:56.998Z,99100.51
2019-05-30T09:08:12.028Z,99104.38
2019-05-30T09:10:42.650Z,99102.55
2019-05-30T09:13:11.983Z,99094.89
2019-05-30T09:15:42.888Z,99097.27
2019-05-30T09:18:12.364Z,99087.54
2019-05-30T09:20:42.019Z,99092.09
2019-05-30T09:23:13.771Z,99080.20
2019-05-30T09:25:43.904Z,99085.04
2019-05-30T09:28:14.111Z,99080.10
2019-05-30T09:30:44.660Z,99073.31
2019-05-30T09:33:14.183Z,99076.41
2019-05-30T09:35:44.836Z,99068.52
2019-05-30T09:38:14.291Z,99065.81
2019-05-30T09:40:43.954Z,99063.90
2019-05-30T09:43:13.326Z,99068.42
2019-05-30T09:45:43.937Z,99064.42
2019-05-30T09:48:13.366Z,99069.67
2019-05-30T09:50:45.038Z,99076.59
2019-05-30T09:53:14.659Z,99067.84
2019-05-30T09:55:46.171Z,99073.14
2019-05-30T09:58:15.572Z,99058.73
2019-05-30T10:00:46.626Z,99060.90
2019-05-30T10:03:16.291Z,99061.48
2019-05-30T10:05:46.948Z,99058.88
2019-05-30T10:08:16.669Z,99044.48
2019-05-30T10:10:47.733Z,99047.59
2019-05-30T10:13:17.133Z,99046.13
2019-05-30T10:15:47.048Z,99050.48
2019-05-30T10:18:16.701Z,99040.32
2019-05-30T10:20:48.186Z,99039.41
2019-05-30T10:23:18.146Z,99037.29
2019-05-30T10:25:47.888Z,99040.25
2019-05-30T10:28:17.691Z,99037.85
2019-05-30T10:30:53.448Z,99029.36
2019-05-30T10:33:18.121Z,99031.83
2019-05-30T10:35:48.782Z,99033.51
2019-05-30T10:38:20.089Z,99035.41
2019-05-30T10:40:51.087Z,99030.84
2019-05-30T10:43:21.509Z,99027.59
2019-05-30T10:45:53.260Z,99029.08
2019-05-30T10:48:22.715Z,99033.59
2019-05-30T10:50:52.263Z,99028.80
2019-05-30T10:53:21.981Z,99029.87
2019-05-30T10:55:52.976Z,99029.39
2019-05-30T10:58:23.469Z,99025.86
2019-05-30T11:00:55.814Z,99027.52
2019-05-30T11:03:27.612Z,99022.69
2019-05-30T11:06:07.432Z,99016.84
2019-05-30T11:08:38.104Z,99020.39
2019-05-30T11:11:07.394Z,99018.91
2019-05-30T11:13:36.693Z,99015.79
2019-05-30T11:16:05.987Z,99019.73
2019-05-30T11:18:35.247Z,99007.20
2019-05-30T11:21:04.741Z,99001.36
2019-05-30T11:23:34.014Z,99000.47
2019-05-30T11:26:03.348Z,99001.27
2019-05-30T11:28:32.611Z,98994.70
2019-05-30T11:31:04.582Z,98995.98
2019-05-30T11:33:32.983Z,98991.12
2019-05-30T11:36:02.281Z,98984.63
2019-05-30T11:38:31.575Z,98987.85
2019-05-30T11:41:00.861Z,98986.17
2019-05-30T11:43:30.184Z,98979.90
2019-05-30T11:45:59.837Z,98977.58
2019-05-30T11:48:29.336Z,98976.38
2019-05-30T11:50:59.940Z,98963.35
2019-05-30T11:53:29.507Z,98966.55
2019-05-30T11:56:00.368Z,98971.19
2019-05-30T11:58:29.843Z,98971.66
2019-05-30T12:01:00.477Z,98974.24
2019-05-30T12:03:30.019Z,98966.42
2019-05-30T12:05:59.315Z,98962.58
2019-05-30T12:08:28.598Z,98972.69
2019-05-30T12:10:59.263Z,98958.75
2019-05-30T12:13:29.032Z,98966.95
2019-05-30T12:15:59.652Z,98964.27
2019-05-30T12:18:29.060Z,98965.71
2019-05-30T12:20:58.336Z,98966.51
2019-05-30T12:23:27.750Z,98966.91
2019-05-30T12:25:58.498Z,98964.92
2019-05-30T12:28:27.785Z,98964.53
2019-05-30T12:31:01.765Z,98956.59
2019-05-30T12:33:28.235Z,98948.06
2019-05-30T12:35:58.565Z,98953.03
2019-05-30T12:38:27.934Z,98945.25
2019-05-30T12:40:57.207Z,98946.17
2019-05-30T12:43:27.975Z,98941.55
2019-05-30T12:45:57.247Z,98940.50
2019-05-30T12:48:26.517Z,98940.83
2019-05-30T12:50:57.118Z,98938.68
2019-05-30T12:53:26.525Z,98944.93
2019-05-30T12:55:56.402Z,98941.47
2019-05-30T12:58:25.716Z,98933.92
2019-05-30T13:00:55.101Z,98930.86
2019-05-30T13:03:24.441Z,98940.89
2019-05-30T13:05:55.071Z,98940.95
2019-05-30T13:08:24.497Z,98943.63
2019-05-30T13:10:55.581Z,98945.83
2019-05-30T13:13:25.028Z,98946.69
2019-05-30T13:15:54.549Z,98949.25
2019-05-30T13:18:23.906Z,98950.45
2019-05-30T13:20:53.183Z,98947.63
2019-05-30T13:23:22.498Z,98943.13
2019-05-30T13:25:51.954Z,98952.83
2019-05-30T13:28:21.256Z,98945.11
2019-05-30T13:30:50.662Z,98942.72
2019-05-30T13:33:19.959Z,98948.28
2019-05-30T13:35:51.110Z,98946.23
2019-05-30T13:38:26.656Z,98945.09
2019-05-30T13:40:52.984Z,98940.75
2019-05-30T13:43:22.285Z,98942.33
2019-05-30T13:45:54.443Z,98941.14
2019-05-30T13:48:26.040Z,98943.50
2019-05-30T13:50:55.363Z,98939.47
2019-05-30T13:53:25.177Z,98934.31
2019-05-30T13:55:54.575Z,98933.20
2019-05-30T13:58:25.080Z,98933.99
2019-05-30T14:01:07.791Z,98933.79
2019-05-30T14:03:33.195Z,98928.01
2019-05-30T14:06:03.027Z,98925.63
2019-05-30T14:08:41.654Z,98930.43
2019-05-30T14:11:04.701Z,98926.08
2019-05-30T14:13:34.009Z,98926.22
2019-05-30T14:16:04.885Z,98927.41
2019-05-30T14:18:34.228Z,98929.23
2019-05-30T14:21:03.678Z,98925.67
2019-05-30T14:23:32.940Z,98915.58
2019-05-30T14:26:03.238Z,98919.50
2019-05-30T14:28:32.571Z,98930.63
2019-05-30T14:31:03.438Z,98927.05
2019-05-30T14:33:34.395Z,98929.64
2019-05-30T14:36:07.292Z,98927.02
2019-05-30T14:38:34.717Z,98922.11
2019-05-30T14:41:04.847Z,98926.86
2019-05-30T14:43:34.307Z,98931.24
2019-05-30T14:46:04.324Z,98926.81
2019-05-30T14:48:33.743Z,98929.39
2019-05-30T14:51:02.996Z,98926.08
2019-05-30T14:53:32.269Z,98927.84
2019-05-30T14:56:01.600Z,98928.00
2019-05-30T14:58:30.899Z,98918.54
2019-05-30T15:01:00.201Z,98924.48
2019-05-30T15:03:29.479Z,98927.27
2019-05-30T15:05:58.738Z,98922.02
2019-05-30T15:08:28.023Z,98922.19
2019-05-30T15:10:57.328Z,98920.23
2019-05-30T15:13:26.625Z,98918.25
2019-05-30T15:15:57.178Z,98915.64
2019-05-30T15:18:26.625Z,98913.52
2019-05-30T15:20:55.996Z,98913.60
2019-05-30T15:23:25.302Z,98898.50
2019-05-30T15:25:54.597Z,98905.86
2019-05-30T15:28:23.862Z,98918.13
2019-05-30T15:30:53.179Z,98914.58
2019-05-30T15:33:22.461Z,98914.97
2019-05-30T15:35:51.843Z,98910.80
2019-05-30T15:38:21.198Z,98894.36
2019-05-30T15:40:50.443Z,98901.05
2019-05-30T15:43:19.750Z,98904.63
2019-05-30T15:45:49.032Z,98903.63
2019-05-30T15:48:18.482Z,98901.89
2019-05-30T15:50:48.862Z,98903.87
2019-05-30T15:53:19.279Z,98901.88
2019-05-30T15:55:48.631Z,98902.64
2019-05-30T15:58:20.692Z,98897.94
2019-05-30T16:00:50.066Z,98897.53
2019-05-30T16:03:20.370Z,98898.70
2019-05-30T16:05:49.886Z,98890.77
2019-05-30T16:08:20.970Z,98886.77
2019-05-30T16:10:50.357Z,98892.32
2019-05-30T16:13:19.774Z,98897.12
2019-05-30T16:15:49.071Z,98893.91
2019-05-30T16:18:18.341Z,98893.91
2019-05-30T16:20:47.647Z,98900.06
2019-05-30T16:23:16.970Z,98908.63
2019-05-30T16:25:46.274Z,98909.83
2019-05-30T16:28:15.870Z,98903.09
2019-05-30T16:30:46.908Z,98901.89
2019-05-30T16:33:16.203Z,98896.32
2019-05-30T16:35:45.459Z,98900.69
2019-05-30T16:38:16.035Z,98896.34
2019-05-30T16:40:45.379Z,98900.09
2019-05-30T16:43:14.702Z,98893.71
2019-05-30T16:45:43.972Z,98898.72
2019-05-30T16:48:14.742Z,98897.33
2019-05-30T16:50:44.027Z,98892.00
2019-05-30T16:53:13.301Z,98892.97
2019-05-30T16:55:42.562Z,98889.60
2019-05-30T16:58:11.932Z,98892.98
2019-05-30T17:00:41.220Z,98895.30
2019-05-30T17:03:10.519Z,98891.55
2019-05-30T17:05:39.925Z,98887.23
2019-05-30T17:08:09.183Z,98897.10
2019-05-30T17:10:38.458Z,98886.24
2019-05-30T17:13:07.887Z,98887.20
2019-05-30T17:15:37.208Z,98891.20
2019-05-30T17:18:06.595Z,98897.14
2019-05-30T17:20:35.912Z,98891.58
2019-05-30T17:23:05.206Z,98893.72
2019-05-30T17:25:34.488Z,98897.49
2019-05-30T17:28:03.891Z,98895.09
2019-05-30T17:30:33.110Z,98900.23
2019-05-30T17:33:02.472Z,98900.05
2019-05-30T17:35:32.239Z,98904.57
2019-05-30T17:38:01.544Z,98898.22
2019-05-30T17:40:44.136Z,98904.13
2019-05-30T17:43:02.136Z,98913.20
2019-05-30T17:45:31.409Z,98912.36
2019-05-30T17:48:15.535Z,98905.44
2019-05-30T17:50:31.964Z,98915.77
2019-05-30T17:53:01.243Z,98911.78
2019-05-30T17:55:30.532Z,98916.31
2019-05-30T17:57:59.897Z,98918.35
2019-05-30T18:00:30.668Z,98914.56
2019-05-30T18:03:02.131Z,98920.73
2019-05-30T18:05:31.685Z,98920.76
2019-05-30T18:08:04.038Z,98929.75
2019-05-30T18:10:33.241Z,98924.26
2019-05-30T18:13:02.555Z,98934.70
2019-05-30T18:15:32.502Z,98927.84
2019-05-30T18:18:03.643Z,98926.41
2019-05-30T18:20:39.958Z,98935.11
2019-05-30T18:23:04.916Z,98935.20
2019-05-30T18:25:34.175Z,98935.62
2019-05-30T18:28:03.479Z,98942.91
2019-05-30T18:30:43.851Z,98939.55
2019-05-30T18:33:13.349Z,98941.16
2019-05-30T18:35:42.622Z,98939.75
2019-05-30T18:38:11.910Z,98943.86
2019-05-30T18:40:42.515Z,98948.98
2019-05-30T18:43:13.581Z,98945.59
2019-05-30T18:45:44.554Z,98943.42
2019-05-30T18:48:13.777Z,98943.03
2019-05-30T18:50:45.096Z,98946.88
2019-05-30T18:53:15.995Z,98948.83
2019-05-30T18:55:45.633Z,98937.21
2019-05-30T18:58:16.024Z,98940.59
2019-05-30T19:00:45.404Z,98937.47
2019-05-30T19:03:14.734Z,98939.77
2019-05-30T19:05:44.048Z,98936.23
2019-05-30T19:08:14.554Z,98936.70
2019-05-30T19:10:45.414Z,98936.36
2019-05-30T19:13:14.767Z,98942.04
2019-05-30T19:15:44.151Z,98944.56
2019-05-30T19:18:13.427Z,98945.47
2019-05-30T19:20:42.715Z,98953.77
2019-05-30T19:23:12.027Z,98960.97
2019-05-30T19:25:42.758Z,98965.59
2019-05-30T19:28:13.876Z,98958.84
2019-05-30T19:30:43.130Z,98965.32
2019-05-30T19:33:12.438Z,98969.39
2019-05-30T19:35:41.916Z,98972.89
2019-05-30T19:38:11.194Z,98970.92
2019-05-30T19:40:40.514Z,98976.88
2019-05-30T19:43:09.826Z,98974.31
2019-05-30T19:45:39.088Z,98975.44
2019-05-30T19:48:08.365Z,98972.61
2019-05-30T19:50:38.736Z,98979.63
2019-05-30T19:53:08.171Z,98979.57
2019-05-30T19:55:37.641Z,98982.55
2019-05-30T19:58:06.907Z,98976.22
2019-05-30T20:00:55.576Z,98984.69
2019-05-30T20:03:07.313Z,98988.29
2019-05-30T20:05:36.776Z,98983.09
2019-05-30T20:08:06.074Z,98988.08
2019-05-30T20:10:39.287Z,98989.25
2019-05-30T20:13:08.567Z,98986.82
2019-05-30T20:15:37.846Z,98987.16
2019-05-30T20:18:07.140Z,98991.47
2019-05-30T20:20:51.613Z,98987.91
2019-05-30T20:23:07.466Z,98985.30
2019-05-30T20:25:39.937Z,98990.55
2019-05-30T20:28:07.713Z,98993.52
2019-05-30T20:30:37.159Z,98993.82
2019-05-30T20:33:06.532Z,98988.29
2019-05-30T20:35:36.740Z,98988.58
2019-05-30T20:38:06.818Z,98994.20
2019-05-30T20:40:36.893Z,98989.63
2019-05-30T20:43:06.253Z,98989.46
2019-05-30T20:45:38.968Z,98989.88
2019-05-30T20:48:06.552Z,98993.27
2019-05-30T20:50:36.864Z,98992.09
2019-05-30T20:53:06.336Z,98992.09
2019-05-30T20:55:36.352Z,98991.00
2019-05-30T20:58:05.888Z,98991.00
2019-05-30T21:00:40.365Z,99001.05
2019-05-30T21:03:10.102Z,99000.30
2019-05-30T21:05:40.278Z,99004.83
2019-05-30T21:08:09.631Z,98997.24
2019-05-30T21:10:41.258Z,98997.24
2019-05-30T21:13:10.690Z,99006.42
2019-05-30T21:15:41.799Z,99006.42
2019-05-30T21:18:12.280Z,99007.59
2019-05-30T21:20:42.145Z,99009.82
2019-05-30T21:23:11.441Z,99015.14
2019-05-30T21:25:41.026Z,99010.73
2019-05-30T21:28:10.366Z,99016.47
2019-05-30T21:30:41.429Z,99014.62
2019-05-30T21:33:10.822Z,99019.54
2019-05-30T21:35:41.815Z,99013.55
2019-05-30T21:38:11.245Z,99017.86
2019-05-30T21:40:40.564Z,99017.86
2019-05-30T21:43:11.629Z,99009.45
2019-05-30T21:45:40.905Z,99001.17
2019-05-30T21:48:10.532Z,99010.27
2019-05-30T21:50:43.069Z,99010.36
2019-05-30T21:53:10.942Z,99010.36
2019-05-30T21:55:40.253Z,99004.88
2019-05-30T21:58:09.602Z,99008.66
2019-05-30T22:01:30.307Z,99009.81
2019-05-30T22:03:59.677Z,99018.10
2019-05-30T22:06:29.004Z,99019.00
2019-05-30T22:09:02.801Z,99024.47
2019-05-30T22:11:31.568Z,99021.50
2019-05-30T22:14:01.212Z,99024.70
2019-05-30T22:16:30.740Z,99018.20
2019-05-30T22:19:00.616Z,99022.30
2019-05-30T22:21:30.115Z,99017.78
2019-05-30T22:23:59.815Z,99017.78
2019-05-30T22:26:29.426Z,99018.95
2019-05-30T22:28:58.936Z,99020.33
2019-05-30T22:31:28.721Z,99022.27
2019-05-30T22:33:58.022Z,99024.33
2019-05-30T22:36:27.276Z,99021.92
2019-05-30T22:38:56.578Z,99027.02
2019-05-30T22:41:26.465Z,99019.69
2019-05-30T22:43:56.904Z,99017.13
2019-05-30T22:46:26.340Z,99019.38
2019-05-30T22:48:58.010Z,99015.33
2019-05-30T22:51:27.697Z,99021.02
2019-05-30T22:53:57.361Z,99017.35
2019-05-30T22:56:26.791Z,99017.99
2019-05-30T22:58:56.070Z,99019.17
2019-05-30T23:01:25.440Z,99016.72
2019-05-30T23:03:54.710Z,99015.47
2019-05-30T23:06:24.002Z,99018.53
2019-05-30T23:08:53.594Z,99013.23
2019-05-30T23:11:24.069Z,99014.00
2019-05-30T23:13:56.058Z,99020.03
2019-05-30T23:16:25.491Z,99019.02
2019-05-30T23:18:54.872Z,99006.11
2019-05-30T23:21:24.516Z,99025.66
2019-05-30T23:23:53.830Z,99015.67
2019-05-30T23:26:23.121Z,99018.23
2019-05-30T23:28:53.712Z,99009.41
2019-05-30T23:31:23.169Z,99005.57
2019-05-30T23:33:52.499Z,99010.69
2019-05-30T23:36:21.764Z,99011.67
2019-05-30T23:38:51.067Z,99008.66
2019-05-30T23:41:20.363Z,99008.55
2019-05-30T23:43:59.573Z,99007.60
2019-05-30T23:46:20.649Z,99004.33
2019-05-30T23:48:49.915Z,99003.67
2019-05-30T23:51:19.222Z,99005.27
2019-05-30T23:53:50.009Z,98999.63
2019-05-30T23:56:19.346Z,99009.35
2019-05-30T23:58:48.637Z,99006.16
